Time;durP1;ratioP1;P1;durP2;ratioP2;P2;SDS_P1;SDS_P2;PMS_P1;PMS_P2;Temp;Humidity;BMP_temperature;BMP_pressure;BME280_temperature;BME280_humidity;BME280_pressure;Samples;Min_cycle;Max_cycle;Signal;HPM_P1;HPM_P2
2023/03/01 00:02:04;;;;;;;14.35;7.95;;;1.60;99.90;;;;;;5036108;28;20029;-84
2023/03/01 00:04:30;;;;;;;14.32;7.47;;;1.40;99.90;;;;;;5033417;28;20034;-87
2023/03/01 00:06:56;;;;;;;21.00;11.25;;;1.50;99.90;;;;;;5035117;28;20033;-84
2023/03/01 00:09:21;;;;;;;23.20;11.77;;;3.30;99.90;;;;;;5035917;28;20036;-89
2023/03/01 00:11:47;;;;;;;14.90;8.40;;;1.50;99.90;;;;;;5031281;28;20045;-84
2023/03/01 00:14:15;;;;;;;14.77;8.00;;;1.50;99.90;;;;;;5047935;28;20212;-80
2023/03/01 00:16:42;;;;;;;13.40;7.25;;;1.80;99.90;;;;;;5047072;28;20021;-85
2023/03/01 00:19:11;;;;;;;12.00;6.65;;;3.70;99.90;;;;;;5036062;28;20021;-84
2023/03/01 00:21:37;;;;;;;14.85;7.93;;;1.20;99.90;;;;;;5051055;28;20036;-84
2023/03/01 00:24:03;;;;;;;11.60;7.25;;;3.30;99.90;;;;;;5037520;28;20025;-82
2023/03/01 00:26:29;;;;;;;12.70;6.88;;;1.40;99.90;;;;;;5032561;28;20108;-82
2023/03/01 00:28:58;;;;;;;13.68;7.20;;;1.30;99.90;;;;;;5031562;28;20520;-81
2023/03/01 00:31:25;;;;;;;12.07;7.05;;;1.40;99.90;;;;;;5041920;28;20425;-85
2023/03/01 00:33:56;;;;;;;14.77;7.78;;;1.30;99.90;;;;;;5045808;28;20029;-84
2023/03/01 00:36:23;;;;;;;;;;;1.40;99.90;;;;;;5045540;28;20208;-84
2023/03/01 00:38:48;;;;;;;11.95;6.32;;;1.30;99.90;;;;;;5031066;28;19913;-83
2023/03/01 00:41:16;;;;;;;13.07;7.28;;;3.10;99.90;;;;;;5048189;28;20601;-84
2023/03/01 00:43:42;;;;;;;14.88;7.35;;;1.40;99.90;;;;;;5031097;28;20053;-82
2023/03/01 00:46:14;;;;;;;14.50;7.25;;;1.40;99.90;;;;;;5043412;28;20101;-83
2023/03/01 00:48:40;;;;;;;12.90;7.35;;;1.30;99.90;;;;;;5041839;28;20051;-84
2023/03/01 00:51:10;;;;;;;12.45;6.88;;;1.30;99.90;;;;;;5032089;28;20021;-80
2023/03/01 00:53:37;;;;;;;16.00;8.88;;;3.30;99.90;;;;;;5025935;28;20033;-81
2023/03/01 00:56:03;;;;;;;10.48;7.35;;;1.30;99.90;;;;;;5022249;28;20061;-82
2023/03/01 00:58:29;;;;;;;15.05;7.05;;;1.30;99.90;;;;;;5037469;28;20029;-81
2023/03/01 01:00:55;;;;;;;11.93;7.40;;;1.30;99.90;;;;;;5026055;28;20045;-84
2023/03/01 01:03:21;;;;;;;12.23;7.05;;;1.30;99.90;;;;;;5024608;28;20029;-83
2023/03/01 01:05:46;;;;;;;13.02;6.85;;;1.30;99.90;;;;;;5031723;28;20028;-82
2023/03/01 01:08:12;;;;;;;14.70;7.78;;;3.50;99.90;;;;;;5030115;28;20020;-83
2023/03/01 01:10:38;;;;;;;15.63;7.57;;;1.80;99.90;;;;;;5034583;28;20116;-82
2023/03/01 01:13:04;;;;;;;15.82;8.02;;;1.30;99.90;;;;;;5046818;28;20464;-80
2023/03/01 01:15:34;;;;;;;12.13;7.38;;;3.50;99.90;;;;;;5037277;28;20051;-82
2023/03/01 01:18:00;;;;;;;11.10;7.17;;;2.40;99.90;;;;;;5019141;28;20079;-82
2023/03/01 01:20:26;;;;;;;11.18;7.25;;;1.30;99.90;;;;;;5028448;28;20034;-82
2023/03/01 01:22:52;;;;;;;12.68;6.90;;;1.30;99.90;;;;;;5016862;28;20557;-80
2023/03/01 01:25:18;;;;;;;12.07;6.88;;;1.30;99.90;;;;;;5013267;28;20025;-82
2023/03/01 01:27:43;;;;;;;12.02;6.95;;;1.30;99.90;;;;;;5016428;28;20021;-84
2023/03/01 01:30:10;;;;;;;11.88;6.65;;;2.40;99.90;;;;;;5022763;28;20566;-84
2023/03/01 01:32:35;;;;;;;12.27;7.32;;;1.50;99.90;;;;;;5007335;28;20433;-81
2023/03/01 01:35:01;;;;;;;11.40;6.70;;;3.30;99.90;;;;;;5007111;28;20033;-83
2023/03/01 01:37:30;;;;;;;12.73;6.80;;;1.50;99.90;;;;;;5027628;28;20095;-81
2023/03/01 01:40:00;;;;;;;12.57;7.15;;;1.40;99.90;;;;;;5014663;28;20025;-81
2023/03/01 01:42:27;;;;;;;12.02;7.75;;;1.30;99.90;;;;;;5014239;28;20033;-82
2023/03/01 01:45:26;;;;;;;13.10;7.15;;;2.20;99.90;;;;;;5031990;28;20045;-81
2023/03/01 01:47:55;;;;;;;11.77;6.75;;;1.20;99.90;;;;;;5025893;28;20026;-81
2023/03/01 01:50:21;;;;;;;12.77;6.88;;;1.20;99.90;;;;;;5009731;28;20025;-84
2023/03/01 01:52:49;;;;;;;12.57;7.50;;;1.10;99.90;;;;;;5030870;28;20116;-80
2023/03/01 01:55:27;;;;;;;11.68;7.57;;;2.80;99.90;;;;;;5007221;28;20028;-84
2023/03/01 01:57:59;;;;;;;13.23;7.68;;;1.00;99.90;;;;;;5015708;28;20029;-81
2023/03/01 02:00:27;;;;;;;13.90;7.60;;;1.90;99.90;;;;;;5032806;28;20053;-82
2023/03/01 02:03:00;;;;;;;15.88;7.78;;;1.00;99.90;;;;;;5044367;28;20021;-81
2023/03/01 02:05:35;;;;;;;14.60;7.22;;;0.90;99.90;;;;;;5025871;28;20034;-83
2023/03/01 02:08:01;;;;;;;12.90;7.30;;;2.00;99.90;;;;;;5011543;28;20029;-82
2023/03/01 02:10:28;;;;;;;12.05;7.50;;;0.90;99.90;;;;;;5017488;28;20083;-82
2023/03/01 02:12:55;;;;;;;13.93;7.50;;;2.10;99.90;;;;;;5023663;28;20036;-83
2023/03/01 02:15:22;;;;;;;13.57;7.40;;;1.00;99.90;;;;;;5023024;28;20116;-83
2023/03/01 02:17:48;;;;;;;14.00;7.53;;;1.00;99.90;;;;;;5009390;28;20544;-81
2023/03/01 02:20:23;;;;;;;13.95;7.68;;;2.40;99.90;;;;;;5018901;28;20033;-83
2023/03/01 02:22:49;;;;;;;14.05;8.13;;;0.90;99.90;;;;;;5015739;28;20025;-84
2023/03/01 02:25:38;;;;;;;14.85;7.93;;;0.80;99.90;;;;;;5011943;28;20021;-83
2023/03/01 02:28:16;;;;;;;12.98;7.90;;;0.80;99.90;;;;;;5027683;28;20039;-83
2023/03/01 02:33:32;;;;;;;12.55;7.88;;;0.80;99.90;;;;;;5038992;28;20041;-81
2023/03/01 02:36:01;;;;;;;13.55;7.88;;;2.10;99.90;;;;;;5016090;28;20065;-84
2023/03/01 02:38:28;;;;;;;12.60;7.57;;;2.10;99.90;;;;;;5016941;28;20485;-81
2023/03/01 02:40:55;;;;;;;14.77;8.38;;;0.70;99.90;;;;;;5012139;28;20543;-83
2023/03/01 02:43:24;;;;;;;12.45;8.15;;;2.10;99.90;;;;;;5016370;28;20096;-83
2023/03/01 02:45:52;;;;;;;14.63;8.43;;;1.90;99.90;;;;;;5016071;28;20025;-83
2023/03/01 02:48:20;;;;;;;13.27;8.75;;;0.60;99.90;;;;;;5008437;28;20466;-83
2023/03/01 02:50:52;;;;;;;15.35;7.95;;;3.20;99.90;;;;;;5014797;28;20025;-81
2023/03/01 02:53:40;;;;;;;16.77;8.40;;;0.70;99.90;;;;;;5027839;28;20087;-83
2023/03/01 02:56:12;;;;;;;15.82;8.20;;;0.70;99.90;;;;;;5008328;28;20029;-84
2023/03/01 02:58:45;;;;;;;16.17;9.13;;;0.60;99.90;;;;;;5034250;28;20060;-83
2023/03/01 03:01:13;;;;;;;15.15;8.88;;;0.60;99.90;;;;;;5015799;28;20386;-83
2023/03/01 03:03:39;;;;;;;14.13;8.48;;;0.60;99.90;;;;;;5015722;28;20030;-83
2023/03/01 03:06:04;;;;;;;14.85;8.30;;;1.70;99.90;;;;;;5019550;28;20033;-81
2023/03/01 03:08:30;;;;;;;14.63;8.32;;;0.60;99.90;;;;;;5010667;28;20557;-84
2023/03/01 03:10:56;;;;;;;14.73;9.05;;;0.60;99.90;;;;;;5011589;28;20045;-83
2023/03/01 03:13:21;;;;;;;17.38;9.73;;;2.50;99.90;;;;;;5013746;28;20033;-84
2023/03/01 03:15:48;;;;;;;15.48;8.70;;;;;;;;;;5022089;28;20036;-84
2023/03/01 03:18:17;;;;;;;14.18;8.73;;;0.50;99.90;;;;;;5017898;28;20095;-83
2023/03/01 03:20:43;;;;;;;13.50;8.50;;;0.60;99.90;;;;;;5036922;28;20036;-82
2023/03/01 03:23:09;;;;;;;17.00;9.38;;;0.50;99.90;;;;;;5012665;28;20033;-83
2023/03/01 03:25:37;;;;;;;17.15;9.23;;;0.60;99.90;;;;;;5026552;28;20060;-84
2023/03/01 03:28:09;;;;;;;14.95;8.82;;;1.90;99.90;;;;;;5017910;28;20037;-83
2023/03/01 03:30:38;;;;;;;16.10;9.15;;;0.50;99.90;;;;;;5030947;28;20030;-83
2023/03/01 03:33:06;;;;;;;16.98;9.27;;;0.50;99.90;;;;;;5018742;28;20044;-84
2023/03/01 03:35:37;;;;;;;19.38;9.68;;;0.40;99.90;;;;;;5014540;28;20071;-83
2023/03/01 03:38:06;;;;;;;15.40;8.65;;;0.50;99.90;;;;;;5015229;28;20465;-81
2023/03/01 03:40:38;;;;;;;16.95;9.32;;;2.10;99.90;;;;;;5014987;28;20029;-84
2023/03/01 03:43:08;;;;;;;22.60;9.63;;;1.30;99.90;;;;;;5025417;28;20064;-83
2023/03/01 03:45:35;;;;;;;16.65;9.00;;;3.20;99.90;;;;;;5010532;28;20506;-82
2023/03/01 03:48:04;;;;;;;16.23;8.93;;;0.50;99.90;;;;;;5023316;28;20052;-84
2023/03/01 03:50:30;;;;;;;16.00;9.32;;;1.70;99.90;;;;;;5023312;28;20470;-83
2023/03/01 03:52:56;;;;;;;17.05;9.43;;;0.50;99.90;;;;;;5026945;28;20801;-84
2023/03/01 03:55:22;;;;;;;14.82;9.38;;;-0.20;99.90;;;;;;5025775;28;20048;-83
2023/03/01 03:57:51;;;;;;;17.77;10.07;;;2.50;99.90;;;;;;5009841;28;20040;-83
2023/03/01 04:00:20;;;;;;;17.02;9.27;;;0.50;99.90;;;;;;5017590;28;20030;-84
2023/03/01 04:02:46;;;;;;;16.58;9.13;;;0.60;99.90;;;;;;4999814;28;20040;-84
2023/03/01 04:05:14;;;;;;;19.25;9.65;;;2.40;99.90;;;;;;5013930;28;20133;-83
2023/03/01 04:07:42;;;;;;;16.08;9.85;;;0.60;99.90;;;;;;5008207;28;20030;-84
2023/03/01 04:10:12;;;;;;;16.38;9.50;;;0.90;99.90;;;;;;5013194;28;20501;-83
2023/03/01 04:12:37;;;;;;;18.58;9.93;;;0.60;99.90;;;;;;5032094;28;20060;-85
2023/03/01 04:15:14;;;;;;;16.10;9.45;;;0.60;99.90;;;;;;5018992;28;20044;-82
2023/03/01 04:17:45;;;;;;;14.95;9.25;;;0.60;99.90;;;;;;5011192;28;20061;-84
2023/03/01 04:20:16;;;;;;;17.08;10.15;;;0.60;99.90;;;;;;5014349;28;20034;-84
2023/03/01 04:22:42;;;;;;;;;;;0.70;99.90;;;;;;5012515;28;20037;-81
2023/03/01 04:25:08;;;;;;;19.80;9.95;;;2.40;99.90;;;;;;5014345;28;19917;-82
2023/03/01 04:27:35;;;;;;;16.15;9.27;;;0.50;99.90;;;;;;5014140;28;20025;-82
2023/03/01 04:30:01;;;;;;;18.02;9.85;;;0.80;99.90;;;;;;5016039;28;20025;-84
2023/03/01 04:32:27;;;;;;;18.90;10.27;;;0.40;99.90;;;;;;5034968;28;20112;-81
2023/03/01 04:34:53;;;;;;;19.05;10.57;;;0.40;99.90;;;;;;5000474;28;20037;-82
2023/03/01 04:37:18;;;;;;;18.23;9.57;;;0.40;99.90;;;;;;5019009;28;20040;-84
2023/03/01 04:39:47;;;;;;;17.13;9.73;;;0.40;99.90;;;;;;5019156;28;20371;-80
2023/03/01 04:42:14;;;;;;;17.83;9.57;;;0.40;99.90;;;;;;5016443;28;20033;-82
2023/03/01 04:44:40;;;;;;;17.58;10.27;;;0.40;99.90;;;;;;5014969;28;20025;-82
2023/03/01 04:47:06;;;;;;;21.23;10.80;;;0.40;99.90;;;;;;5018916;28;20078;-79
2023/03/01 04:49:32;;;;;;;18.48;10.05;;;0.40;99.90;;;;;;5042692;28;20021;-81
2023/03/01 04:52:01;;;;;;;18.85;10.73;;;0.30;99.90;;;;;;5016747;28;20437;-83
2023/03/01 04:54:32;;;;;;;21.30;10.48;;;1.40;99.90;;;;;;5014149;28;20116;-81
2023/03/01 04:56:58;;;;;;;18.43;10.73;;;1.20;99.90;;;;;;5035437;28;20429;-85
2023/03/01 04:59:24;;;;;;;19.83;10.50;;;1.90;99.90;;;;;;5017218;28;20391;-80
2023/03/01 05:01:51;;;;;;;20.17;10.68;;;1.70;99.90;;;;;;5033969;28;20408;-82
2023/03/01 05:04:17;;;;;;;20.13;10.50;;;2.10;99.90;;;;;;5014967;28;20543;-81
2023/03/01 05:06:42;;;;;;;16.30;9.88;;;0.30;99.90;;;;;;5015152;28;20405;-83
2023/03/01 05:09:08;;;;;;;17.58;10.48;;;-0.50;99.90;;;;;;5029773;28;20026;-82
2023/03/01 05:11:35;;;;;;;19.50;10.80;;;1.70;99.90;;;;;;5018496;28;20109;-83
2023/03/01 05:14:09;;;;;;;20.70;10.85;;;0.40;99.90;;;;;;5031511;28;20034;-84
2023/03/01 05:16:36;;;;;;;19.67;10.65;;;2.50;99.90;;;;;;5033236;28;20047;-85
2023/03/01 05:19:11;;;;;;;20.60;10.75;;;0.20;99.90;;;;;;5021572;28;20052;-84
2023/03/01 05:22:01;;;;;;;20.33;10.98;;;2.30;99.90;;;;;;5020961;28;20028;-83
2023/03/01 05:24:24;;;;;;;20.20;10.70;;;0.60;99.90;;;;;;5043095;28;20044;-84
2023/03/01 05:26:51;;;;;;;19.27;10.30;;;0.70;99.90;;;;;;5018639;28;20022;-82
2023/03/01 05:29:18;;;;;;;19.77;10.82;;;0.50;99.90;;;;;;5016244;28;20448;-81
2023/03/01 05:31:43;;;;;;;20.17;10.65;;;0.40;99.90;;;;;;5016152;28;20031;-81
2023/03/01 05:34:11;;;;;;;17.83;10.15;;;0.50;99.90;;;;;;5014976;28;20025;-82
2023/03/01 05:36:38;;;;;;;20.20;10.93;;;3.10;99.90;;;;;;5018233;28;20029;-79
2023/03/01 05:39:03;;;;;;;20.33;11.32;;;0.40;99.90;;;;;;5032060;28;20029;-81
2023/03/01 05:41:29;;;;;;;18.10;10.73;;;2.10;99.90;;;;;;5014319;28;20026;-82
2023/03/01 05:43:55;;;;;;;23.63;10.65;;;2.70;99.90;;;;;;5016501;28;20057;-82
2023/03/01 05:46:20;;;;;;;19.77;10.88;;;0.30;99.90;;;;;;5014960;28;20108;-81
2023/03/01 05:48:48;;;;;;;21.08;11.10;;;0.30;99.90;;;;;;5014127;28;20034;-81
2023/03/01 05:51:13;;;;;;;19.90;10.98;;;0.30;99.90;;;;;;5027659;28;20048;-83
2023/03/01 05:53:39;;;;;;;19.38;10.95;;;1.50;99.90;;;;;;5012778;28;20076;-82
2023/03/01 05:56:05;;;;;;;24.55;11.68;;;0.40;99.90;;;;;;5013806;28;20048;-81
2023/03/01 05:58:31;;;;;;;22.73;11.25;;;0.20;99.90;;;;;;5016079;28;20064;-80
2023/03/01 06:00:57;;;;;;;20.15;10.90;;;2.50;99.90;;;;;;5017088;28;20401;-83
2023/03/01 06:03:23;;;;;;;19.10;10.77;;;0.50;99.90;;;;;;5022015;28;20116;-84
2023/03/01 06:05:48;;;;;;;22.10;12.10;;;0.10;99.90;;;;;;5013456;28;20033;-83
2023/03/01 06:08:14;;;;;;;23.95;12.35;;;0.10;99.90;;;;;;5025246;28;20044;-82
2023/03/01 06:10:40;;;;;;;19.98;11.52;;;1.40;99.90;;;;;;5016483;28;20034;-82
2023/03/01 06:13:06;;;;;;;23.00;11.63;;;0.10;99.90;;;;;;5020740;28;20029;-82
2023/03/01 06:15:32;;;;;;;30.05;11.70;;;2.80;99.90;;;;;;5018615;28;20150;-83
2023/03/01 06:17:58;;;;;;;43.75;14.70;;;0.10;99.90;;;;;;5021010;28;20028;-83
2023/03/01 06:20:27;;;;;;;33.97;12.88;;;0.10;99.90;;;;;;5032907;28;20022;-84
2023/03/01 06:22:53;;;;;;;34.38;12.02;;;0.10;99.90;;;;;;5030147;28;20036;-81
2023/03/01 06:25:21;;;;;;;27.70;11.57;;;0.40;99.90;;;;;;5015681;28;20405;-82
2023/03/01 06:27:48;;;;;;;24.95;11.02;;;0.40;99.90;;;;;;5026912;28;20026;-82
2023/03/01 06:30:16;;;;;;;21.63;11.85;;;3.00;99.90;;;;;;5037810;28;20036;-84
2023/03/01 06:32:42;;;;;;;20.42;11.45;;;0.30;99.90;;;;;;5044480;28;20028;-84
2023/03/01 06:35:12;;;;;;;20.50;11.65;;;0.30;99.90;;;;;;5026833;28;20034;-83
2023/03/01 06:37:41;;;;;;;22.45;11.35;;;0.40;99.90;;;;;;5047283;28;20036;-83
2023/03/01 06:40:08;;;;;;;25.17;12.32;;;1.20;99.90;;;;;;5038971;28;20037;-85
2023/03/01 06:42:37;;;;;;;22.02;12.30;;;0.50;99.90;;;;;;5037329;28;20041;-82
2023/03/01 06:45:05;;;;;;;21.42;12.18;;;2.30;99.90;;;;;;5035025;28;20060;-83
2023/03/01 06:47:31;;;;;;;31.23;11.63;;;0.60;99.90;;;;;;5035629;28;20025;-81
2023/03/01 06:49:56;;;;;;;28.23;12.73;;;0.50;99.90;;;;;;5034095;28;20025;-86
2023/03/01 06:52:22;;;;;;;30.73;12.07;;;0.50;99.90;;;;;;5033078;28;20049;-81
2023/03/01 06:54:48;;;;;;;34.70;12.02;;;1.90;99.90;;;;;;5030090;28;20018;-81
2023/03/01 06:57:16;;;;;;;24.08;12.90;;;2.90;99.90;;;;;;5030432;28;20471;-83
2023/03/01 06:59:42;;;;;;;21.73;11.80;;;0.50;99.90;;;;;;5045795;28;20049;-82
2023/03/01 07:02:11;;;;;;;21.08;12.05;;;0.50;99.90;;;;;;5046228;28;20037;-81
2023/03/01 07:04:37;;;;;;;24.40;12.75;;;0.50;99.90;;;;;;5048992;28;20026;-80
2023/03/01 07:07:03;;;;;;;24.42;12.20;;;0.60;99.90;;;;;;5057273;28;20041;-83
2023/03/01 07:09:28;;;;;;;23.27;12.15;;;0.70;99.90;;;;;;5044486;28;20031;-82
2023/03/01 07:11:54;;;;;;;20.08;11.00;;;2.70;99.90;;;;;;5029542;28;20029;-82
2023/03/01 07:14:20;;;;;;;21.58;11.93;;;2.90;99.90;;;;;;5024026;28;20037;-82
2023/03/01 07:16:46;;;;;;;23.92;12.93;;;0.90;99.90;;;;;;5036395;28;20029;-82
2023/03/01 07:19:12;;;;;;;22.48;12.05;;;;;;;;;;5043586;28;20071;-83
2023/03/01 07:21:40;;;;;;;23.15;12.15;;;0.90;99.90;;;;;;5027590;28;20033;-82
2023/03/01 07:24:07;;;;;;;21.25;11.50;;;2.10;99.90;;;;;;5039051;28;20026;-80
2023/03/01 07:26:33;;;;;;;22.80;11.73;;;1.10;99.90;;;;;;5044320;28;20021;-81
2023/03/01 07:29:03;;;;;;;20.40;11.93;;;1.20;99.90;;;;;;5041619;28;20031;-80
2023/03/01 07:31:29;;;;;;;21.67;11.93;;;1.20;99.90;;;;;;5014061;28;20204;-83
2023/03/01 07:33:55;;;;;;;22.75;12.20;;;1.20;99.90;;;;;;5040796;28;20039;-82
2023/03/01 07:36:21;;;;;;;21.33;12.07;;;1.20;99.90;;;;;;5034473;28;20124;-81
2023/03/01 07:38:46;;;;;;;22.05;12.18;;;2.10;99.90;;;;;;5017841;28;20039;-81
2023/03/01 07:41:12;;;;;;;23.55;11.55;;;1.50;99.90;;;;;;5020819;28;20124;-82
2023/03/01 07:43:39;;;;;;;23.23;12.00;;;;;;;;;;5029324;28;20055;-83
2023/03/01 07:46:05;;;;;;;24.23;12.45;;;1.60;99.90;;;;;;5016577;28;20030;-81
2023/03/01 07:48:32;;;;;;;22.00;12.15;;;1.60;99.90;;;;;;5028383;28;20056;-82
2023/03/01 07:51:01;;;;;;;20.63;11.48;;;2.60;99.90;;;;;;5034809;28;20025;-82
2023/03/01 07:53:28;;;;;;;18.92;11.80;;;1.50;99.90;;;;;;5019578;28;20025;-81
2023/03/01 07:56:05;;;;;;;22.15;12.50;;;1.70;99.90;;;;;;5019548;28;20036;-81
2023/03/01 07:58:33;;;;;;;22.38;10.63;;;1.70;99.90;;;;;;5017444;28;20033;-80
2023/03/01 08:01:04;;;;;;;23.70;11.77;;;1.80;99.90;;;;;;5013229;28;20033;-87
2023/03/01 08:03:29;;;;;;;25.00;12.90;;;1.90;99.90;;;;;;5027466;28;20034;-81
2023/03/01 08:05:55;;;;;;;19.83;11.38;;;3.10;99.90;;;;;;5011520;28;20031;-82
2023/03/01 08:08:21;;;;;;;19.58;11.55;;;2.00;99.90;;;;;;4999068;28;20535;-81
2023/03/01 08:10:47;;;;;;;23.55;11.50;;;2.00;99.90;;;;;;5020903;28;20065;-81
2023/03/01 08:13:12;;;;;;;23.73;12.75;;;2.20;99.90;;;;;;5034049;28;20097;-81
2023/03/01 08:15:38;;;;;;;21.67;12.52;;;2.10;99.90;;;;;;5022998;28;20036;-79
2023/03/01 08:18:03;;;;;;;22.88;11.40;;;2.10;99.90;;;;;;5018807;28;20033;-82
2023/03/01 08:20:29;;;;;;;20.42;11.68;;;2.20;99.90;;;;;;5035774;28;20402;-81
2023/03/01 08:22:55;;;;;;;21.67;11.80;;;2.30;99.90;;;;;;5023397;28;20037;-80
2023/03/01 08:25:20;;;;;;;25.42;13.10;;;2.40;99.90;;;;;;5037025;28;20453;-81
2023/03/01 08:27:46;;;;;;;19.45;11.38;;;2.40;99.90;;;;;;5008606;28;20025;-82
2023/03/01 08:30:12;;;;;;;21.17;11.25;;;2.70;99.90;;;;;;5018052;28;20029;-81
2023/03/01 08:32:39;;;;;;;21.70;12.23;;;2.50;99.90;;;;;;5011278;28;20056;-79
2023/03/01 08:35:05;;;;;;;22.00;11.90;;;3.30;99.90;;;;;;5022241;28;20037;-79
2023/03/01 08:37:32;;;;;;;25.88;12.88;;;2.60;99.90;;;;;;5021331;28;20056;-81
2023/03/01 08:39:58;;;;;;;20.40;12.18;;;4.70;99.90;;;;;;5018797;28;20084;-78
2023/03/01 08:42:24;;;;;;;20.05;11.32;;;2.60;99.90;;;;;;5023312;28;20409;-81
2023/03/01 08:44:50;;;;;;;22.88;12.82;;;3.80;99.90;;;;;;5034508;28;20029;-81
2023/03/01 08:47:15;;;;;;;24.85;11.68;;;2.70;99.90;;;;;;5021755;28;20470;-82
2023/03/01 08:49:41;;;;;;;25.15;12.07;;;3.60;99.90;;;;;;5017196;28;20116;-82
2023/03/01 08:52:06;;;;;;;25.25;12.98;;;2.70;99.90;;;;;;5062744;22;20029;-81
2023/03/01 08:54:32;;;;;;;20.73;11.38;;;;;;;;;;5059562;28;20033;-83
2023/03/01 08:57:00;;;;;;;23.98;12.63;;;2.90;99.90;;;;;;5032423;28;20030;-84
2023/03/01 08:59:26;;;;;;;20.90;12.05;;;;;;;;;;5030633;28;20033;-84
2023/03/01 09:01:52;;;;;;;23.33;12.45;;;2.90;99.90;;;;;;5031377;28;20056;-83
2023/03/01 09:04:18;;;;;;;20.05;11.73;;;;;;;;;;5030500;28;20049;-83
2023/03/01 09:06:44;;;;;;;22.17;12.93;;;;;;;;;;5040616;28;20026;-83
2023/03/01 09:09:15;;;;;;;23.67;12.75;;;3.10;99.90;;;;;;5052289;28;20067;-85
2023/03/01 09:11:43;;;;;;;21.88;11.88;;;6.10;99.90;;;;;;5033518;28;20017;-83
2023/03/01 09:14:09;;;;;;;22.52;11.68;;;;;;;;;;5031719;28;20018;-84
2023/03/01 09:16:35;;;;;;;20.58;12.38;;;3.30;99.90;;;;;;5044836;28;20036;-86
2023/03/01 09:19:02;;;;;;;22.42;11.73;;;3.30;99.90;;;;;;5033205;28;20031;-85
2023/03/01 09:21:28;;;;;;;23.25;11.93;;;4.60;99.90;;;;;;5050615;28;20052;-85
2023/03/01 09:23:56;;;;;;;22.83;11.82;;;3.80;99.90;;;;;;5049662;28;20101;-83
2023/03/01 09:26:23;;;;;;;23.00;12.90;;;5.10;99.90;;;;;;5034203;28;20056;-83
2023/03/01 09:28:50;;;;;;;22.70;12.50;;;3.70;99.90;;;;;;5031448;28;20021;-85
2023/03/01 09:31:18;;;;;;;21.15;11.63;;;3.80;99.90;;;;;;5048251;28;20033;-84
2023/03/01 09:33:47;;;;;;;21.52;11.85;;;3.70;99.90;;;;;;5027441;28;20030;-83
2023/03/01 09:36:20;;;;;;;20.83;12.30;;;3.90;99.90;;;;;;5032717;28;20030;-87
2023/03/01 09:38:49;;;;;;;24.02;12.18;;;4.00;99.90;;;;;;5036247;28;20033;-82
2023/03/01 09:41:25;;;;;;;22.95;12.93;;;4.60;99.90;;;;;;5020466;28;20053;-81
2023/03/01 09:43:57;;;;;;;23.13;12.75;;;4.00;99.90;;;;;;5040974;28;20041;-81
2023/03/01 09:46:24;;;;;;;22.80;11.75;;;;;;;;;;5019770;28;20032;-81
2023/03/01 09:48:56;;;;;;;20.65;12.60;;;4.20;99.90;;;;;;5044443;28;20017;-80
2023/03/01 09:51:33;;;;;;;22.88;11.98;;;4.30;99.90;;;;;;5027090;28;20018;-84
2023/03/01 09:54:02;;;;;;;22.17;12.32;;;5.40;99.90;;;;;;5018437;28;20025;-84
2023/03/01 09:56:37;;;;;;;22.40;12.27;;;4.30;99.90;;;;;;5025426;28;20025;-82
2023/03/01 09:59:28;;;;;;;22.15;12.57;;;5.90;99.90;;;;;;5023583;28;20025;-82
2023/03/01 10:02:42;;;;;;;18.73;10.93;;;4.40;99.90;;;;;;5024912;28;20045;-80
2023/03/01 10:05:47;;;;;;;24.60;13.20;;;4.50;99.90;;;;;;4993414;28;20038;-84
2023/03/01 10:08:26;;;;;;;23.20;12.40;;;4.70;99.90;;;;;;5027882;28;20093;-85
2023/03/01 10:10:52;;;;;;;22.27;12.60;;;4.80;99.90;;;;;;5031240;28;20040;-84
2023/03/01 10:13:20;;;;;;;21.80;12.25;;;7.30;99.90;;;;;;5049196;28;20044;-81
2023/03/01 10:16:14;;;;;;;20.00;12.23;;;5.00;99.90;;;;;;5047483;28;20025;-83
2023/03/01 10:18:41;;;;;;;24.65;12.52;;;5.00;99.90;;;;;;5025820;28;20098;-82
2023/03/01 10:21:17;;;;;;;22.10;11.98;;;5.10;99.90;;;;;;5047616;28;20027;-82
2023/03/01 10:23:43;;;;;;;28.42;13.80;;;5.20;99.90;;;;;;5046104;28;20041;-82
2023/03/01 10:26:41;;;;;;;21.85;12.25;;;5.30;99.90;;;;;;5031737;28;20013;-84
2023/03/01 10:29:12;;;;;;;26.75;13.50;;;5.30;99.90;;;;;;5030423;28;20036;-85
2023/03/01 10:31:44;;;;;;;22.65;12.07;;;6.30;99.90;;;;;;5030448;28;20041;-80
2023/03/01 10:34:20;;;;;;;22.42;12.35;;;5.50;99.90;;;;;;5053743;28;20089;-84
2023/03/01 10:37:15;;;;;;;24.00;12.05;;;5.50;99.90;;;;;;5027822;28;20044;-84
2023/03/01 10:40:00;;;;;;;21.15;12.85;;;7.00;99.90;;;;;;5036105;28;20101;-88
2023/03/01 10:42:32;;;;;;;25.75;11.63;;;5.10;99.90;;;;;;5030461;28;20021;-83
2023/03/01 10:45:13;;;;;;;21.60;12.00;;;5.70;99.90;;;;;;5048801;28;20029;-83
2023/03/01 10:47:39;;;;;;;21.65;11.85;;;6.90;99.90;;;;;;5024088;28;20052;-85
2023/03/01 10:50:17;;;;;;;22.33;12.05;;;5.60;99.90;;;;;;5049517;28;20022;-82
2023/03/01 10:53:03;;;;;;;23.55;12.27;;;5.70;99.90;;;;;;5036506;28;20022;-85
2023/03/01 10:55:36;;;;;;;20.48;11.77;;;5.80;99.90;;;;;;5034135;28;20014;-86
2023/03/01 10:58:19;;;;;;;21.20;12.95;;;5.30;99.40;;;;;;5048923;28;20018;-84
2023/03/01 11:01:17;;;;;;;20.45;11.75;;;7.10;99.60;;;;;;5028326;28;20022;-83
2023/03/01 11:03:43;;;;;;;21.15;12.38;;;6.20;98.80;;;;;;5031337;28;20065;-83
2023/03/01 11:06:11;;;;;;;20.88;12.35;;;7.10;99.00;;;;;;5036504;28;20024;-85
2023/03/01 11:08:41;;;;;;;20.50;11.73;;;6.30;98.40;;;;;;5033920;28;20048;-83
2023/03/01 11:11:18;;;;;;;24.67;13.55;;;8.40;98.90;;;;;;5034482;28;20057;-81
2023/03/01 11:13:57;;;;;;;21.15;13.48;;;6.50;98.20;;;;;;5054058;28;20010;-82
2023/03/01 11:16:29;;;;;;;24.08;13.10;;;6.50;97.70;;;;;;5054213;28;20045;-81
2023/03/01 11:19:00;;;;;;;25.17;12.25;;;6.60;97.80;;;;;;5052488;28;20032;-87
2023/03/01 11:21:29;;;;;;;21.23;12.93;;;8.00;98.00;;;;;;5029318;28;20013;-83
2023/03/01 11:23:56;;;;;;;21.48;12.00;;;6.70;97.10;;;;;;5050186;28;20060;-85
2023/03/01 11:26:21;;;;;;;21.75;12.65;;;8.10;97.50;;;;;;5030162;28;20028;-82
2023/03/01 11:28:53;;;;;;;21.25;12.02;;;8.50;98.00;;;;;;5050206;28;20037;-85
2023/03/01 11:31:20;;;;;;;20.13;12.35;;;8.30;97.40;;;;;;5048897;28;20018;-84
2023/03/01 11:34:07;;;;;;;21.15;13.05;;;8.90;97.50;;;;;;5047537;28;20072;-85
2023/03/01 11:36:33;;;;;;;23.58;12.02;;;;;;;;;;5048087;28;20017;-86
2023/03/01 11:39:16;;;;;;;22.02;12.20;;;7.00;96.30;;;;;;5032099;28;20022;-85
2023/03/01 11:41:42;;;;;;;19.75;12.07;;;;;;;;;;5050646;28;20021;-86
2023/03/01 11:44:22;;;;;;;22.42;12.77;;;7.10;96.00;;;;;;5033473;28;20067;-86
2023/03/01 11:47:03;;;;;;;22.10;12.60;;;9.60;96.90;;;;;;5033817;28;20017;-86
2023/03/01 11:49:29;;;;;;;18.85;11.80;;;;;;;;;;5051518;28;20017;-83
2023/03/01 11:52:26;;;;;;;22.20;12.48;;;7.20;95.80;;;;;;5045883;28;20320;-82
2023/03/01 11:55:11;;;;;;;21.27;12.65;;;6.80;95.90;;;;;;5022499;28;20059;-85
2023/03/01 11:57:50;;;;;;;19.05;12.55;;;6.80;95.70;;;;;;5031784;28;20033;-87
2023/03/01 12:00:41;;;;;;;22.33;12.80;;;6.70;95.90;;;;;;5037233;28;20082;-88
2023/03/01 12:03:28;;;;;;;27.48;14.05;;;6.70;96.20;;;;;;5037555;28;20007;-87
2023/03/01 12:06:40;;;;;;;24.00;12.18;;;7.00;95.90;;;;;;5020764;28;20022;-91
2023/03/01 12:09:47;;;;;;;18.42;11.23;;;7.10;95.90;;;;;;5039029;28;20033;-82
2023/03/01 12:12:28;;;;;;;24.15;12.52;;;7.20;95.50;;;;;;5032490;28;20037;-90
2023/03/01 12:15:28;;;;;;;23.75;13.25;;;7.30;95.30;;;;;;5048032;28;20032;-85
2023/03/01 12:18:23;;;;;;;22.23;13.02;;;7.40;95.50;;;;;;5046855;28;20037;-91
2023/03/01 12:21:12;;;;;;;22.98;12.77;;;7.60;94.80;;;;;;5050637;28;20052;-89
2023/03/01 12:23:47;;;;;;;24.83;13.35;;;7.60;95.00;;;;;;5042425;28;20063;-84
2023/03/01 12:26:33;;;;;;;19.65;11.63;;;7.70;94.40;;;;;;5044533;28;20046;-83
2023/03/01 12:29:37;;;;;;;22.67;11.73;;;7.60;94.50;;;;;;5033777;28;20038;-86
2023/03/01 12:32:22;;;;;;;20.65;12.88;;;7.60;94.30;;;;;;5044516;28;20021;-86
2023/03/01 12:35:07;;;;;;;18.20;11.43;;;7.60;94.30;;;;;;5029879;28;20148;-86
2023/03/01 12:37:36;;;;;;;20.10;11.25;;;;;;;;;;5046175;28;20014;-83
2023/03/01 12:40:32;;;;;;;20.88;12.18;;;7.70;94.10;;;;;;5031781;28;20105;-89
2023/03/01 12:43:19;;;;;;;19.13;12.23;;;7.70;94.20;;;;;;5036367;28;20101;-86
2023/03/01 12:45:45;;;;;;;20.92;11.98;;;;;;;;;;5047318;28;20022;-85
2023/03/01 12:48:27;;;;;;;20.55;11.60;;;7.80;93.90;;;;;;5030405;28;20373;-83
2023/03/01 12:50:55;;;;;;;21.25;12.27;;;7.60;93.70;;;;;;5031304;28;20014;-87
2023/03/01 12:53:30;;;;;;;21.13;12.65;;;7.70;93.90;;;;;;5048760;28;20139;-88
2023/03/01 12:56:00;;;;;;;20.73;11.60;;;7.80;93.80;;;;;;5031772;28;20105;-88
2023/03/01 12:58:34;;;;;;;21.50;11.10;;;8.00;93.70;;;;;;5034754;28;20052;-87
2023/03/01 13:01:15;;;;;;;21.10;12.05;;;8.10;93.20;;;;;;5036185;28;20029;-89
2023/03/01 13:04:11;;;;;;;20.40;11.60;;;8.20;93.20;;;;;;5047785;28;20026;-89
2023/03/01 13:06:52;;;;;;;24.65;13.98;;;8.20;93.00;;;;;;5049834;28;20021;-87